Time;durP1;ratioP1;P1;durP2;ratioP2;P2;SDS_P1;SDS_P2;PMS_P1;PMS_P2;Temp;Humidity;BMP_temperature;BMP_pressure;BME280_temperature;BME280_humidity;BME280_pressure;Samples;Min_cycle;Max_cycle;Signal;HPM_P1;HPM_P2
2021/10/08 00:00:14;;;;;;;3.92;2.05;;;;;;;8.68;100.00;95244.63;10184707;29;20031;-75
2021/10/08 00:05:15;;;;;;;2.83;1.92;;;;;;;8.77;100.00;95252.25;10169326;29;20048;-68
2021/10/08 00:10:15;;;;;;;3.92;2.00;;;;;;;8.74;100.00;95236.69;10167730;29;20032;-68
2021/10/08 00:15:16;;;;;;;6.15;2.25;;;;;;;8.79;100.00;95250.94;10167797;29;20047;-70
2021/10/08 00:20:18;;;;;;;3.85;2.53;;;;;;;8.76;100.00;95245.25;10167661;29;20032;-67
2021/10/08 00:25:18;;;;;;;4.90;2.53;;;;;;;8.76;100.00;95243.38;10183547;29;20060;-71
2021/10/08 00:30:19;;;;;;;3.15;2.55;;;;;;;8.78;100.00;95233.25;10167861;29;20051;-68
2021/10/08 00:35:19;;;;;;;3.20;1.80;;;;;;;8.79;100.00;95234.88;10167254;29;20670;-70
2021/10/08 00:40:21;;;;;;;3.07;1.90;;;;;;;8.79;100.00;95244.75;10167185;29;20076;-73
2021/10/08 00:45:21;;;;;;;3.17;2.15;;;;;;;8.86;100.00;95237.34;10181967;29;20268;-67
2021/10/08 00:50:22;;;;;;;2.28;2.00;;;;;;;8.80;100.00;95230.31;10167028;29;20414;-68
2021/10/08 00:55:23;;;;;;;3.30;2.00;;;;;;;8.76;100.00;95243.38;10168079;29;20638;-68
2021/10/08 01:00:23;;;;;;;2.75;1.98;;;;;;;8.81;100.00;95235.41;10167873;29;20032;-67
2021/10/08 01:05:24;;;;;;;2.78;2.40;;;;;;;8.76;100.00;95231.88;10166381;29;20052;-68
2021/10/08 01:10:24;;;;;;;3.27;1.63;;;;;;;8.76;100.00;95221.94;10181813;29;20468;-70
2021/10/08 01:15:25;;;;;;;3.05;2.22;;;;;;;8.63;100.00;95223.13;10167078;29;20036;-68
2021/10/08 01:20:26;;;;;;;4.03;2.80;;;;;;;8.65;100.00;95225.56;10167023;29;20043;-68
2021/10/08 01:25:28;;;;;;;5.93;3.47;;;;;;;8.63;100.00;95235.72;10166845;29;20038;-72
2021/10/08 01:30:29;;;;;;;5.53;3.28;;;;;;;8.65;100.00;95244.31;10165764;29;20028;-67
2021/10/08 01:35:30;;;;;;;4.38;3.10;;;;;;;8.74;100.00;95234.00;10166456;29;20699;-70
2021/10/08 01:40:31;;;;;;;4.80;3.17;;;;;;;8.72;100.00;95223.50;10166384;29;20434;-75
2021/10/08 01:45:32;;;;;;;5.45;3.55;;;;;;;8.66;100.00;95217.28;10180292;29;20028;-68
2021/10/08 01:50:32;;;;;;;5.90;4.05;;;;;;;8.56;100.00;95219.81;10165970;29;20069;-71
2021/10/08 01:55:32;;;;;;;6.05;4.13;;;;;;;8.49;100.00;95216.53;10147842;29;20036;-68
2021/10/08 02:00:34;;;;;;;6.13;4.10;;;;;;;8.50;100.00;95220.84;10165319;29;20043;-71
2021/10/08 02:05:34;;;;;;;9.93;5.60;;;;;;;8.45;100.00;95216.19;10169842;29;20036;-72
2021/10/08 02:10:34;;;;;;;11.13;4.57;;;;;;;8.42;100.00;95218.53;10164053;29;20024;-70
2021/10/08 02:15:35;;;;;;;7.93;5.20;;;;;;;8.38;100.00;95228.94;10164935;29;20303;-72
2021/10/08 02:20:35;;;;;;;10.55;4.82;;;;;;;8.41;100.00;95233.78;10163612;29;20035;-69
2021/10/08 02:25:36;;;;;;;9.23;5.38;;;;;;;8.39;100.00;95217.16;10163283;29;20046;-70
2021/10/08 02:30:36;;;;;;;9.40;4.38;;;;;;;8.39;100.00;95217.97;10163125;29;20043;-70
2021/10/08 02:35:37;;;;;;;10.82;5.80;;;;;;;8.36;100.00;95207.75;10163422;29;20089;-68
2021/10/08 02:40:37;;;;;;;12.77;5.28;;;;;;;8.36;100.00;95213.13;10162677;29;20032;-69
2021/10/08 02:45:38;;;;;;;11.50;6.07;;;;;;;8.33;100.00;95216.28;10162599;29;20032;-71
2021/10/08 02:50:38;;;;;;;13.83;5.93;;;;;;;8.38;100.00;95205.63;10178196;29;20028;-74
2021/10/08 02:55:39;;;;;;;15.65;7.35;;;;;;;8.37;100.00;95211.22;10162655;29;20287;-69
2021/10/08 03:00:39;;;;;;;13.43;6.22;;;;;;;8.46;100.00;95203.63;10164538;29;20127;-68
2021/10/08 03:05:40;;;;;;;18.05;6.40;;;;;;;8.54;100.00;95205.88;10177988;29;20036;-70
2021/10/08 03:10:41;;;;;;;11.50;6.38;;;;;;;8.59;100.00;95215.84;10170154;29;20043;-68
2021/10/08 03:15:41;;;;;;;13.90;5.82;;;;;;;8.58;100.00;95206.19;10169884;29;20028;-71
2021/10/08 03:20:41;;;;;;;12.02;6.13;;;;;;;8.58;100.00;95203.50;10185952;29;20024;-68
2021/10/08 03:25:42;;;;;;;8.52;4.95;;;;;;;8.60;100.00;95204.88;10185865;29;20051;-75
2021/10/08 03:30:42;;;;;;;10.50;5.22;;;;;;;8.51;100.00;95211.72;10185524;29;20039;-72
2021/10/08 03:35:43;;;;;;;9.07;4.90;;;;;;;8.51;100.00;95220.59;10169463;29;20513;-75
2021/10/08 03:41:19;;;;;;;6.38;3.65;;;;;;;8.42;100.00;95202.47;10170191;29;20371;-75
2021/10/08 03:46:11;;;;;;;6.97;3.35;;;;;;;8.34;100.00;95206.38;10171787;29;20439;-70
2021/10/08 03:51:11;;;;;;;7.90;2.97;;;;;;;8.31;100.00;95215.72;10168575;29;20439;-73
2021/10/08 03:56:11;;;;;;;6.83;3.23;;;;;;;8.33;100.00;95215.47;10153156;29;20040;-68
2021/10/08 04:01:12;;;;;;;4.35;2.63;;;;;;;8.35;100.00;95216.03;10168327;29;20815;-72
2021/10/08 04:06:13;;;;;;;3.28;2.08;;;;;;;8.31;100.00;95214.91;10169693;29;20040;-72
2021/10/08 04:11:13;;;;;;;3.38;1.50;;;;;;;8.33;100.00;95224.31;10169415;29;20039;-73
2021/10/08 04:16:14;;;;;;;3.80;2.50;;;;;;;8.32;100.00;95229.94;10183395;29;20414;-70
2021/10/08 04:21:15;;;;;;;3.60;2.05;;;;;;;8.34;100.00;95227.81;10166519;29;20032;-69
2021/10/08 04:26:15;;;;;;;3.38;2.05;;;;;;;8.35;100.00;95235.59;10151679;29;20027;-69
2021/10/08 04:31:16;;;;;;;2.97;2.10;;;;;;;8.37;100.00;95238.00;10180066;29;20144;-70
2021/10/08 04:36:16;;;;;;;5.20;2.30;;;;;;;8.41;100.00;95239.16;10166439;29;20327;-70
2021/10/08 04:41:18;;;;;;;3.30;2.20;;;;;;;8.46;100.00;95247.28;10182065;29;20027;-74
2021/10/08 04:46:18;;;;;;;4.75;2.28;;;;;;;8.48;100.00;95241.69;10202588;29;20272;-75
2021/10/08 04:51:18;;;;;;;12.13;6.37;;;;;;;8.50;100.00;95248.41;10205585;29;20034;-70
2021/10/08 04:56:19;;;;;;;3.58;2.53;;;;;;;8.48;100.00;95234.44;10169251;29;20292;-73
2021/10/08 05:01:19;;;;;;;3.67;2.30;;;;;;;8.48;100.00;95236.31;10164986;29;20163;-68
2021/10/08 05:06:20;;;;;;;6.50;2.90;;;;;;;8.59;100.00;95237.28;10164953;29;20431;-69
2021/10/08 05:11:20;;;;;;;4.10;2.78;;;;;;;8.53;100.00;95226.50;10177998;29;20338;-70
2021/10/08 05:16:21;;;;;;;4.33;2.63;;;;;;;8.59;100.00;95218.53;10164661;29;20043;-72
2021/10/08 05:21:21;;;;;;;5.13;2.30;;;;;;;8.49;100.00;95224.56;10179820;29;20331;-72
2021/10/08 05:26:21;;;;;;;3.38;2.10;;;;;;;8.53;100.00;95237.19;10180333;29;20272;-69
2021/10/08 05:31:22;;;;;;;11.53;2.57;;;;;;;8.58;100.00;95232.97;10180357;29;20388;-73
2021/10/08 05:36:22;;;;;;;2.87;1.70;;;;;;;8.59;100.00;95243.44;10179987;29;20291;-73
2021/10/08 05:41:23;;;;;;;5.78;3.00;;;;;;;8.46;100.00;95238.47;10164070;29;20304;-72
2021/10/08 05:46:23;;;;;;;8.77;3.75;;;;;;;8.45;100.00;95231.47;10179623;29;20107;-69
2021/10/08 05:51:24;;;;;;;6.53;3.17;;;;;;;8.45;100.00;95234.94;10164807;29;20040;-70
2021/10/08 05:56:24;;;;;;;8.43;3.10;;;;;;;8.54;100.00;95233.47;10164753;29;20028;-69
2021/10/08 06:01:24;;;;;;;14.63;3.47;;;;;;;8.63;100.00;95230.38;10163747;29;20060;-69
2021/10/08 06:06:25;;;;;;;5.67;2.73;;;;;;;8.66;100.00;95225.31;10178691;29;20805;-70
2021/10/08 06:11:26;;;;;;;2.77;1.93;;;;;;;8.63;100.00;95233.06;10163693;29;20849;-70
2021/10/08 06:16:26;;;;;;;5.90;2.55;;;;;;;8.55;100.00;95234.28;10179091;29;20307;-69
2021/10/08 06:21:27;;;;;;;4.80;1.88;;;;;;;8.54;100.00;95232.69;10163496;29;20532;-70
2021/10/08 06:26:27;;;;;;;3.45;2.05;;;;;;;8.62;100.00;95228.75;10179069;29;20358;-76
2021/10/08 06:31:28;;;;;;;3.20;1.88;;;;;;;8.64;100.00;95222.06;10162830;29;20032;-70
2021/10/08 06:36:28;;;;;;;4.85;1.20;;;;;;;8.49;100.00;95236.06;10163161;29;20086;-72
2021/10/08 06:41:29;;;;;;;5.38;2.30;;;;;;;8.38;100.00;95237.75;10161767;29;20036;-70
2021/10/08 06:46:29;;;;;;;8.00;3.10;;;;;;;8.37;100.00;95248.72;10161752;29;20035;-70
2021/10/08 06:51:30;;;;;;;2.70;1.90;;;;;;;8.28;100.00;95266.28;10163237;29;20040;-72
2021/10/08 06:56:30;;;;;;;2.13;1.50;;;;;;;8.35;100.00;95262.38;10163222;29;20043;-73
2021/10/08 07:01:32;;;;;;;2.15;1.33;;;;;;;8.37;100.00;95262.94;10181577;29;20307;-73
2021/10/08 07:06:32;;;;;;;3.92;1.90;;;;;;;8.33;100.00;95264.50;10178844;29;20036;-69
2021/10/08 07:11:33;;;;;;;4.15;1.73;;;;;;;8.36;100.00;95269.34;10176532;29;20055;-69
2021/10/08 07:16:33;;;;;;;6.80;1.60;;;;;;;8.33;100.00;95275.22;10161110;29;20039;-68
2021/10/08 07:21:34;;;;;;;6.88;2.25;;;;;;;8.39;100.00;95273.41;10142884;29;20264;-69
2021/10/08 07:26:35;;;;;;;3.85;2.20;;;;;;;8.35;100.00;95273.09;10159641;29;20110;-68
2021/10/08 07:31:36;;;;;;;3.50;2.17;;;;;;;8.42;100.00;95280.94;10161220;29;20040;-72
2021/10/08 07:36:38;;;;;;;5.63;2.25;;;;;;;8.48;100.00;95303.28;10163758;29;20565;-70
2021/10/08 07:41:40;;;;;;;2.83;1.90;;;;;;;8.42;100.00;95296.22;10145623;29;20067;-72
2021/10/08 07:46:41;;;;;;;5.32;2.10;;;;;;;8.44;100.00;95305.63;10176974;29;20044;-70
2021/10/08 07:51:41;;;;;;;4.33;2.27;;;;;;;8.42;100.00;95326.47;10161455;29;20127;-73
2021/10/08 07:56:41;;;;;;;4.50;2.47;;;;;;;8.39;100.00;95332.34;10167114;29;20284;-76
2021/10/08 08:01:42;;;;;;;4.97;2.83;;;;;;;8.35;100.00;95332.00;10168308;29;20311;-69
2021/10/08 08:06:42;;;;;;;5.38;2.45;;;;;;;8.30;100.00;95341.81;10170670;29;20035;-69
2021/10/08 08:11:43;;;;;;;5.03;3.10;;;;;;;8.28;100.00;95352.78;10169417;29;20034;-74
2021/10/08 08:16:44;;;;;;;5.90;3.50;;;;;;;8.34;100.00;95346.47;10168000;29;20570;-75
2021/10/08 08:21:44;;;;;;;8.45;2.72;;;;;;;8.44;100.00;95328.91;10183433;29;20480;-71
2021/10/08 08:26:44;;;;;;;4.97;2.63;;;;;;;8.53;100.00;95340.88;10169013;29;20058;-73
2021/10/08 08:31:45;;;;;;;3.92;2.45;;;;;;;8.50;100.00;95350.22;10182974;29;20430;-73
2021/10/08 08:36:45;;;;;;;3.38;2.17;;;;;;;8.52;100.00;95349.97;10168517;29;20028;-74
2021/10/08 08:41:46;;;;;;;3.60;2.30;;;;;;;8.63;100.00;95369.69;10168499;29;20035;-72
2021/10/08 08:46:46;;;;;;;6.07;2.53;;;;;;;8.68;100.00;95378.63;10166817;29;20024;-70
2021/10/08 08:51:47;;;;;;;4.80;2.95;;;;;;;8.79;100.00;95368.88;10166108;29;20076;-69
2021/10/08 08:56:48;;;;;;;5.35;2.42;;;;;;;8.89;100.00;95371.69;10182087;29;20123;-70
2021/10/08 09:01:59;;;;;;;5.95;2.72;;;;;;;8.85;100.00;95370.56;10182201;29;20131;-70
2021/10/08 09:07:00;;;;;;;4.22;2.25;;;;;;;8.93;100.00;95353.25;10150670;29;20075;-71
2021/10/08 09:12:00;;;;;;;3.58;1.65;;;;;;;8.91;100.00;95333.91;10181875;29;20026;-76
2021/10/08 09:17:17;;;;;;;1.10;0.75;;;;;;;8.82;100.00;95324.66;10181064;29;20498;-71
2021/10/08 09:22:39;;;;;;;2.22;1.13;;;;;;;8.67;100.00;95331.44;10167201;29;20032;-70
2021/10/08 09:27:42;;;;;;;2.95;1.20;;;;;;;8.71;100.00;95337.94;10169660;29;20471;-69
2021/10/08 09:32:50;;;;;;;2.13;1.38;;;;;;;8.64;100.00;95348.00;10180746;29;20103;-71
2021/10/08 09:38:07;;;;;;;2.63;1.60;;;;;;;8.50;100.00;95344.84;10149365;29;20067;-69
2021/10/08 09:43:11;;;;;;;8.02;1.98;;;;;;;8.64;100.00;95339.19;10164316;29;20032;-72
2021/10/08 09:48:12;;;;;;;3.85;2.42;;;;;;;8.71;100.00;95345.97;10164512;29;20047;-69
2021/10/08 09:53:14;;;;;;;4.72;1.80;;;;;;;8.63;100.00;95343.69;10180351;29;20028;-69
2021/10/08 09:58:14;;;;;;;5.55;2.10;;;;;;;8.72;100.00;95355.63;10164145;29;20123;-72
2021/10/08 10:03:17;;;;;;;5.03;2.40;;;;;;;8.66;100.00;95351.25;10164211;29;20048;-69
2021/10/08 10:08:18;;;;;;;5.40;3.10;;;;;;;8.67;100.00;95347.50;10148075;29;20303;-70
2021/10/08 10:13:19;;;;;;;8.20;2.90;;;;;;;8.59;100.00;95336.41;10162922;29;20032;-69
2021/10/08 10:18:20;;;;;;;6.43;3.40;;;;;;;8.60;100.00;95321.97;10162408;29;20634;-70
2021/10/08 10:23:23;;;;;;;9.60;5.72;;;;;;;8.57;100.00;95303.69;10162857;29;20039;-71
2021/10/08 10:28:23;;;;;;;5.55;2.90;;;;;;;8.62;100.00;95309.13;10162581;29;20497;-74
2021/10/08 10:33:26;;;;;;;7.32;2.38;;;;;;;8.60;100.00;95295.19;10163891;29;20032;-69
2021/10/08 10:38:31;;;;;;;6.05;2.10;;;;;;;8.57;100.00;95261.66;10164055;29;20168;-76
2021/10/08 10:43:33;;;;;;;4.03;1.30;;;;;;;8.58;100.00;95257.09;10162775;29;20024;-69
2021/10/08 10:48:43;;;;;;;2.42;1.63;;;;;;;8.52;100.00;95275.75;10162945;29;20035;-75
2021/10/08 10:53:51;;;;;;;3.08;1.85;;;;;;;8.55;100.00;95283.31;10162228;29;20482;-73
2021/10/08 10:59:23;;;;;;;2.63;1.23;;;;;;;8.65;100.00;95285.34;10162569;29;20515;-72
2021/10/08 11:04:25;;;;;;;2.03;1.60;;;;;;;8.80;100.00;95294.63;10161495;29;20084;-70
2021/10/08 11:09:26;;;;;;;2.22;1.48;;;;;;;8.78;100.00;95291.41;10162261;29;20414;-71
2021/10/08 11:14:26;;;;;;;3.17;1.30;;;;;;;8.89;100.00;95277.06;10161924;29;20032;-70
2021/10/08 11:19:40;;;;;;;3.93;2.33;;;;;;;8.94;100.00;95290.50;10160895;29;20024;-71
2021/10/08 11:24:41;;;;;;;6.90;2.72;;;;;;;9.16;100.00;95287.84;10161951;29;20456;-73
2021/10/08 11:29:41;;;;;;;4.28;3.00;;;;;;;9.05;100.00;95270.81;10182394;29;20450;-71
2021/10/08 11:34:53;;;;;;;2.87;1.90;;;;;;;8.89;100.00;95279.75;10171243;29;20088;-70
2021/10/08 11:39:54;;;;;;;3.28;1.92;;;;;;;8.78;100.00;95272.63;10169302;29;20315;-69
2021/10/08 11:44:59;;;;;;;4.78;2.30;;;;;;;8.99;100.00;95268.34;10169119;29;20079;-68
2021/10/08 11:51:01;;;;;;;6.38;2.60;;;;;;;9.08;100.00;95269.50;10168431;29;20414;-72
2021/10/08 11:55:41;;;;;;;3.22;1.88;;;;;;;9.24;100.00;95267.81;10172689;29;20047;-72
2021/10/08 12:00:49;;;;;;;6.55;1.50;;;;;;;9.25;100.00;95277.47;10184493;29;20192;-69
2021/10/08 12:05:52;;;;;;;1.90;1.45;;;;;;;9.21;100.00;95281.75;10168561;29;20035;-71
2021/10/08 12:11:17;;;;;;;0.80;0.60;;;;;;;9.02;100.00;95271.31;10152725;29;20040;-68
2021/10/08 12:16:35;;;;;;;2.03;1.30;;;;;;;9.09;100.00;95264.97;10183551;29;20032;-75
2021/10/08 12:21:43;;;;;;;2.88;1.88;;;;;;;8.81;100.00;95256.84;10167946;29;20163;-74
2021/10/08 12:26:52;;;;;;;3.83;1.23;;;;;;;8.93;100.00;95267.47;10182960;29;20040;-70
2021/10/08 12:31:57;;;;;;;0.50;0.50;;;;;;;8.90;100.00;95267.94;10183265;29;20631;-76
2021/10/08 12:36:58;;;;;;;1.60;0.90;;;;;;;8.83;100.00;95268.16;10167422;29;20118;-71
2021/10/08 12:42:02;;;;;;;0.40;0.30;;;;;;;8.85;100.00;95251.81;10150594;29;20025;-69
2021/10/08 12:47:12;;;;;;;0.95;0.60;;;;;;;8.82;100.00;95236.22;10168481;29;20028;-69
2021/10/08 12:52:13;;;;;;;0.75;0.52;;;;;;;8.91;100.00;95242.78;10166866;29;20084;-70
2021/10/08 12:57:20;;;;;;;1.30;0.73;;;;;;;8.93;100.00;95243.34;10167737;29;20617;-76
2021/10/08 13:02:41;;;;;;;4.43;1.40;;;;;;;8.84;100.00;95248.31;10165799;29;20063;-71
2021/10/08 13:07:42;;;;;;;1.02;0.90;;;;;;;8.81;100.00;95256.84;10150554;29;20032;-71
2021/10/08 13:12:55;;;;;;;2.15;1.40;;;;;;;8.71;100.00;95262.09;10167676;29;20038;-69
2021/10/08 13:17:57;;;;;;;1.27;0.80;;;;;;;8.60;100.00;95255.78;10165565;29;20032;-69
2021/10/08 13:22:59;;;;;;;2.33;1.17;;;;;;;8.61;100.00;95268.13;10165540;29;20573;-71
2021/10/08 13:27:59;;;;;;;0.88;0.68;;;;;;;8.39;100.00;95263.50;10164988;29;20035;-68
2021/10/08 13:33:00;;;;;;;1.13;0.67;;;;;;;8.32;100.00;95249.47;10149312;29;20561;-71
2021/10/08 13:38:00;;;;;;;2.33;1.50;;;;;;;8.37;100.00;95249.56;10180980;29;20288;-70
2021/10/08 13:43:01;;;;;;;4.72;1.50;;;;;;;8.38;100.00;95248.47;10167093;29;20459;-69
2021/10/08 13:48:01;;;;;;;3.40;1.23;;;;;;;8.31;100.00;95242.50;10179694;29;20490;-68
2021/10/08 13:53:04;;;;;;;4.43;1.80;;;;;;;8.21;100.00;95228.97;10166282;29;20292;-73
2021/10/08 13:58:08;;;;;;;9.20;2.45;;;;;;;8.14;100.00;95218.41;10168735;29;20036;-73
2021/10/08 14:13:12;;;;;;;1.38;1.13;;;;;;;8.18;100.00;95219.56;10165684;29;20963;-75
2021/10/08 14:18:13;;;;;;;5.40;1.33;;;;;;;8.23;100.00;95221.47;10163419;29;20028;-71
2021/10/08 14:23:13;;;;;;;1.90;1.20;;;;;;;8.33;100.00;95221.66;10163151;29;20123;-75
2021/10/08 14:28:14;;;;;;;3.08;1.80;;;;;;;8.46;100.00;95219.72;10164999;29;20359;-74
2021/10/08 14:33:14;;;;;;;3.08;1.38;;;;;;;8.48;100.00;95213.00;10163345;29;20414;-73
2021/10/08 14:38:16;;;;;;;1.23;0.80;;;;;;;8.27;100.00;95195.84;10162990;29;20142;-71
2021/10/08 14:43:16;;;;;;;1.88;1.38;;;;;;;8.23;100.00;95205.41;10131666;29;20273;-68
2021/10/08 14:48:17;;;;;;;4.68;1.60;;;;;;;8.10;100.00;95211.94;10141132;29;20040;-68
2021/10/08 14:53:21;;;;;;;2.83;1.50;;;;;;;8.06;100.00;95216.16;10162418;29;20123;-68
2021/10/08 14:58:22;;;;;;;1.75;1.30;;;;;;;7.94;100.00;95202.88;10150383;29;20032;-69
2021/10/08 15:03:25;;;;;;;3.60;1.83;;;;;;;7.77;100.00;95210.09;10150031;29;20056;-70
2021/10/08 15:08:25;;;;;;;3.60;2.20;;;;;;;7.69;100.00;95201.41;10163028;29;20043;-68
2021/10/08 15:13:25;;;;;;;6.03;3.03;;;;;;;7.68;100.00;95210.50;10161843;29;20036;-75
2021/10/08 15:18:26;;;;;;;5.03;2.45;;;;;;;7.64;100.00;95211.22;10160922;29;20032;-75
2021/10/08 15:23:26;;;;;;;4.75;2.75;;;;;;;7.74;100.00;95232.78;10177267;29;20028;-69
2021/10/08 15:28:27;;;;;;;2.15;1.10;;;;;;;7.63;100.00;95228.31;10162246;29;20092;-72
2021/10/08 15:33:27;;;;;;;1.83;1.20;;;;;;;7.36;100.00;95235.09;10145825;29;20043;-73
2021/10/08 15:38:29;;;;;;;1.02;0.93;;;;;;;7.25;100.00;95238.63;10161078;29;20699;-72
2021/10/08 15:43:29;;;;;;;2.17;1.38;;;;;;;7.32;100.00;95236.63;10161971;29;20571;-68
2021/10/08 15:48:30;;;;;;;1.77;1.10;;;;;;;7.21;100.00;95244.72;10161224;29;20031;-73
2021/10/08 15:53:31;;;;;;;2.25;1.60;;;;;;;7.20;100.00;95259.94;10176597;29;20036;-69
2021/10/08 15:58:31;;;;;;;4.03;1.52;;;;;;;7.10;100.00;95263.25;10177038;29;20482;-73
2021/10/08 16:03:32;;;;;;;4.80;1.95;;;;;;;7.10;100.00;95273.94;10162706;29;20114;-69
2021/10/08 16:08:32;;;;;;;3.40;1.63;;;;;;;7.21;100.00;95284.81;10161810;29;20631;-69
2021/10/08 16:13:36;;;;;;;4.78;1.85;;;;;;;7.14;100.00;95292.97;10160875;29;20118;-72
2021/10/08 16:18:46;;;;;;;3.08;1.73;;;;;;;7.01;100.00;95296.72;10167159;29;20106;-76
2021/10/08 16:23:46;;;;;;;3.47;2.38;;;;;;;6.95;100.00;95297.66;10167022;29;20120;-76
2021/10/08 16:28:47;;;;;;;4.32;2.30;;;;;;;6.79;100.00;95291.19;10182501;29;20028;-68
2021/10/08 16:33:47;;;;;;;8.70;2.97;;;;;;;6.75;100.00;95290.03;10168241;29;20038;-69
2021/10/08 16:38:48;;;;;;;6.53;3.70;;;;;;;6.73;100.00;95300.16;10166811;29;20801;-69
2021/10/08 16:43:48;;;;;;;6.25;3.42;;;;;;;6.87;100.00;95303.38;10168013;29;20027;-67
2021/10/08 16:48:49;;;;;;;6.82;2.78;;;;;;;6.81;100.00;95297.94;10166248;29;20090;-70
2021/10/08 16:53:51;;;;;;;4.10;2.03;;;;;;;6.93;100.00;95308.56;10182914;29;20046;-69
2021/10/08 16:58:52;;;;;;;3.67;1.65;;;;;;;6.88;100.00;95321.84;10166960;29;20040;-70
2021/10/08 17:03:52;;;;;;;7.78;3.10;;;;;;;6.70;100.00;95322.81;10182032;29;20052;-73
2021/10/08 17:08:53;;;;;;;7.15;4.18;;;;;;;6.67;100.00;95326.75;10182656;29;20032;-77
2021/10/08 17:13:53;;;;;;;9.00;4.72;;;;;;;6.65;100.00;95328.81;10181585;29;20082;-72
2021/10/08 17:18:54;;;;;;;7.38;4.40;;;;;;;6.55;100.00;95325.13;10165696;29;20146;-69
2021/10/08 17:24:21;;;;;;;6.70;3.67;;;;;;;6.59;100.00;95321.75;10166534;29;20497;-68
2021/10/08 17:29:34;;;;;;;8.85;3.75;;;;;;;6.66;100.00;95325.13;10166591;29;20028;-69
2021/10/08 17:34:34;;;;;;;8.25;3.75;;;;;;;6.76;100.00;95331.75;10167305;29;20060;-75
2021/10/08 17:39:35;;;;;;;6.63;4.03;;;;;;;6.90;100.00;95327.75;10165125;29;20127;-68
2021/10/08 17:44:35;;;;;;;7.13;3.95;;;;;;;6.83;100.00;95327.09;10180655;29;20095;-75
2021/10/08 17:49:36;;;;;;;7.93;3.70;;;;;;;6.78;100.00;95317.09;10164530;29;20032;-69
2021/10/08 17:54:38;;;;;;;9.07;3.00;;;;;;;6.63;100.00;95322.13;10163071;29;20127;-70
2021/10/08 17:59:39;;;;;;;3.85;2.20;;;;;;;6.52;100.00;95318.41;10148918;29;20395;-69
2021/10/08 18:04:41;;;;;;;4.22;1.48;;;;;;;6.49;100.00;95327.69;10162936;29;20044;-75
2021/10/08 18:09:43;;;;;;;7.47;1.88;;;;;;;6.62;100.00;95331.16;10169520;29;20044;-74
2021/10/08 18:14:43;;;;;;;2.88;1.33;;;;;;;6.64;100.00;95335.25;10164233;29;20478;-70
2021/10/08 18:19:46;;;;;;;3.28;1.50;;;;;;;6.56;100.00;95327.56;10167669;29;20090;-67
2021/10/08 18:24:47;;;;;;;3.83;1.20;;;;;;;6.51;100.00;95330.13;10163565;29;20051;-71
2021/10/08 18:29:54;;;;;;;2.70;1.50;;;;;;;6.39;100.00;95324.78;10147798;29;20119;-69
2021/10/08 18:34:54;;;;;;;5.50;1.08;;;;;;;6.38;100.00;95320.50;10162927;29;20487;-73
2021/10/08 18:39:54;;;;;;;1.50;0.97;;;;;;;6.28;100.00;95321.06;10162808;29;20032;-67
2021/10/08 18:44:55;;;;;;;2.90;1.10;;;;;;;6.29;100.00;95327.22;10178626;29;20272;-71
2021/10/08 18:49:55;;;;;;;1.50;0.98;;;;;;;6.23;100.00;95328.94;10162997;29;20286;-70
2021/10/08 18:54:56;;;;;;;0.63;0.60;;;;;;;6.19;100.00;95322.44;10162917;29;20099;-70
2021/10/08 18:59:57;;;;;;;3.40;0.80;;;;;;;6.19;100.00;95333.13;10163924;29;20086;-72
2021/10/08 19:04:57;;;;;;;2.30;0.77;;;;;;;6.38;100.00;95333.84;10160439;29;20055;-71
2021/10/08 19:10:00;;;;;;;1.13;0.90;;;;;;;6.45;100.00;95339.06;10162330;29;20886;-70
2021/10/08 19:15:07;;;;;;;2.75;1.10;;;;;;;6.37;100.00;95345.56;10158801;29;20032;-73
2021/10/08 19:20:17;;;;;;;2.35;1.40;;;;;;;6.46;100.00;95338.84;10160468;29;20056;-69
2021/10/08 19:25:18;;;;;;;2.65;1.15;;;;;;;6.43;100.00;95341.97;10160255;29;20434;-72
2021/10/08 19:30:18;;;;;;;3.30;1.10;;;;;;;6.46;100.00;95348.69;10160728;29;20028;-69
2021/10/08 19:35:20;;;;;;;2.88;1.02;;;;;;;6.27;100.00;95356.81;10176837;29;20039;-72
2021/10/08 19:40:20;;;;;;;3.88;1.60;;;;;;;6.18;100.00;95347.50;10176232;29;20043;-72
2021/10/08 19:45:23;;;;;;;2.80;1.50;;;;;;;6.15;100.00;95353.31;10176174;29;20043;-70
2021/10/08 19:50:23;;;;;;;3.50;2.00;;;;;;;6.21;100.00;95360.41;10164288;29;20083;-69
2021/10/08 19:55:24;;;;;;;3.28;1.42;;;;;;;6.27;100.00;95351.47;10169247;29;20046;-68
2021/10/08 20:00:24;;;;;;;4.50;1.75;;;;;;;6.21;100.00;95346.22;10170061;29;20047;-68
2021/10/08 20:15:44;;;;;;;1.98;1.33;;;;;;;6.33;100.00;95352.41;10168748;29;20119;-70
2021/10/08 20:20:45;;;;;;;1.90;1.38;;;;;;;6.34;100.00;95346.03;10182921;29;20028;-69
2021/10/08 20:25:46;;;;;;;2.60;1.35;;;;;;;6.42;100.00;95358.19;10157431;29;20847;-72
2021/10/08 20:30:47;;;;;;;4.82;2.47;;;;;;;6.37;100.00;95352.75;10162851;29;20043;-70
2021/10/08 20:35:50;;;;;;;3.53;1.83;;;;;;;6.36;100.00;95349.25;10176933;29;20035;-69
2021/10/08 20:40:56;;;;;;;3.97;1.77;;;;;;;6.40;100.00;95350.44;10161354;29;20494;-70
2021/10/08 20:45:58;;;;;;;4.95;2.97;;;;;;;6.50;100.00;95353.34;10170154;29;20025;-70
2021/10/08 20:50:58;;;;;;;7.72;2.42;;;;;;;6.52;100.00;95355.78;10164681;29;20472;-69
2021/10/08 20:55:59;;;;;;;3.75;2.22;;;;;;;6.44;100.00;95354.25;10162842;29;20564;-70
2021/10/08 21:01:00;;;;;;;3.30;1.80;;;;;;;6.55;100.00;95357.19;10165406;29;20072;-71
2021/10/08 21:06:00;;;;;;;5.97;2.72;;;;;;;6.41;100.00;95356.59;10165123;29;20512;-71
2021/10/08 21:11:04;;;;;;;5.15;2.33;;;;;;;6.38;100.00;95360.53;10165371;29;20517;-73
2021/10/08 21:16:04;;;;;;;5.15;2.30;;;;;;;6.37;100.00;95360.78;10168195;29;20021;-70
2021/10/08 21:21:05;;;;;;;5.13;2.65;;;;;;;6.33;100.00;95366.56;10148327;29;20032;-69
2021/10/08 21:26:05;;;;;;;3.25;1.80;;;;;;;6.32;100.00;95353.44;10163994;29;20405;-68
2021/10/08 21:31:06;;;;;;;5.28;2.95;;;;;;;6.30;100.00;95347.53;10165222;29;20028;-68
2021/10/08 21:36:16;;;;;;;6.10;2.70;;;;;;;6.26;100.00;95346.38;10163757;29;20029;-68
2021/10/08 21:46:36;;;;;;;2.50;2.13;;;;;;;6.07;100.00;95340.28;10167960;29;20426;-70
2021/10/08 21:51:37;;;;;;;1.75;1.20;;;;;;;6.08;100.00;95347.25;10200327;29;20027;-74
2021/10/08 21:56:38;;;;;;;3.50;1.70;;;;;;;6.18;100.00;95344.03;10180212;29;20532;-69
2021/10/08 22:01:38;;;;;;;2.70;1.90;;;;;;;6.22;100.00;95354.00;10163690;29;20056;-72
2021/10/08 22:06:39;;;;;;;3.13;2.10;;;;;;;6.24;100.00;95351.13;10180000;29;20032;-72
2021/10/08 22:11:40;;;;;;;3.97;1.73;;;;;;;6.13;100.00;95350.88;10179004;29;20774;-68
2021/10/08 22:16:41;;;;;;;2.53;1.50;;;;;;;6.05;100.00;95347.72;10162836;29;20503;-68
2021/10/08 22:21:43;;;;;;;3.30;1.60;;;;;;;6.05;100.00;95347.72;10163669;29;20038;-68
2021/10/08 22:27:12;;;;;;;1.98;1.35;;;;;;;6.02;100.00;95342.84;10163602;29;20031;-69
2021/10/08 22:37:39;;;;;;;3.22;1.27;;;;;;;5.92;100.00;95344.19;10184257;29;20036;-69
2021/10/08 22:42:40;;;;;;;4.35;1.30;;;;;;;5.93;100.00;95343.16;10178376;29;20028;-69
2021/10/08 22:47:40;;;;;;;2.58;1.42;;;;;;;5.90;100.00;95340.94;10163653;29;20110;-69
2021/10/08 22:52:41;;;;;;;1.52;1.10;;;;;;;5.93;100.00;95340.50;10162512;29;20466;-71
2021/10/08 22:57:41;;;;;;;5.13;1.60;;;;;;;5.95;100.00;95345.59;10177964;29;20067;-71
2021/10/08 23:02:41;;;;;;;3.10;1.35;;;;;;;5.94;100.00;95338.63;10161464;29;20300;-69
2021/10/08 23:07:54;;;;;;;2.20;1.50;;;;;;;5.92;100.00;95338.06;10177941;29;20032;-69
2021/10/08 23:18:01;;;;;;;1.48;1.00;;;;;;;5.96;100.00;95326.69;10162470;29;20028;-69
2021/10/08 23:23:02;;;;;;;1.50;1.08;;;;;;;5.87;100.00;95328.03;10162746;29;20043;-70
2021/10/08 23:28:04;;;;;;;2.42;0.60;;;;;;;5.82;100.00;95330.59;10169848;29;20024;-68
2021/10/08 23:33:04;;;;;;;2.08;0.98;;;;;;;5.66;100.00;95321.38;10169078;29;20087;-72
2021/10/08 23:38:05;;;;;;;1.70;0.73;;;;;;;5.65;100.00;95331.25;10169659;29;20044;-70
2021/10/08 23:43:05;;;;;;;1.38;0.80;;;;;;;5.68;100.00;95324.66;10169424;29;20083;-69
2021/10/08 23:48:06;;;;;;;2.13;1.00;;;;;;;5.53;100.00;95319.72;10168914;29;20027;-69
2021/10/08 23:53:07;;;;;;;2.72;0.65;;;;;;;5.28;100.00;95318.00;10183910;29;20648;-71
2021/10/08 23:58:07;;;;;;;0.82;0.70;;;;;;;5.16;100.00;95319.00;10170094;29;20028;-69
